createdAt,value
2023-03-25T00:00:37.387Z,994.89
2023-03-25T00:03:44.884Z,994.88
2023-03-25T00:06:53.830Z,994.85
2023-03-25T00:10:01.294Z,994.83
2023-03-25T00:13:08.888Z,994.79
2023-03-25T00:16:17.873Z,994.66
2023-03-25T00:19:25.264Z,994.65
2023-03-25T00:22:32.468Z,994.55
2023-03-25T00:25:41.853Z,994.59
2023-03-25T00:28:49.797Z,994.61
2023-03-25T00:31:56.925Z,994.69
2023-03-25T00:35:05.015Z,994.62
2023-03-25T00:38:14.082Z,994.59
2023-03-25T00:41:21.110Z,994.57
2023-03-25T00:44:28.869Z,994.58
2023-03-25T00:47:37.527Z,994.63
2023-03-25T00:50:44.597Z,994.63
2023-03-25T00:53:52.295Z,994.60
2023-03-25T00:57:00.902Z,994.56
2023-03-25T01:00:08.844Z,994.59
2023-03-25T01:03:16.960Z,994.56
2023-03-25T01:06:25.825Z,994.58
2023-03-25T01:09:33.599Z,994.51
2023-03-25T01:12:41.577Z,994.56
2023-03-25T01:15:49.290Z,994.49
2023-03-25T01:18:58.146Z,994.50
2023-03-25T01:22:05.615Z,994.50
2023-03-25T01:25:13.424Z,994.52
2023-03-25T01:28:22.177Z,994.53
2023-03-25T01:31:29.659Z,994.52
2023-03-25T01:34:37.397Z,994.52
2023-03-25T01:37:46.402Z,994.56
2023-03-25T01:40:53.647Z,994.48
2023-03-25T01:44:01.641Z,994.50
2023-03-25T01:47:10.801Z,994.52
2023-03-25T01:50:18.159Z,994.39
2023-03-25T01:53:26.307Z,994.38
2023-03-25T01:56:33.420Z,994.36
2023-03-25T01:59:37.622Z,994.39
2023-03-25T02:02:45.662Z,994.41
2023-03-25T02:05:53.223Z,994.38
2023-03-25T02:09:02.389Z,994.37
2023-03-25T02:12:10.174Z,994.30
2023-03-25T02:15:18.319Z,994.33
2023-03-25T02:18:27.819Z,994.26
2023-03-25T02:21:35.746Z,994.34
2023-03-25T02:24:43.428Z,994.32
2023-03-25T02:27:52.676Z,994.17
2023-03-25T02:31:00.986Z,994.21
2023-03-25T02:34:08.960Z,994.24
2023-03-25T02:37:18.252Z,994.26
2023-03-25T02:40:26.317Z,994.22
2023-03-25T02:43:34.338Z,994.34
2023-03-25T02:46:42.201Z,994.26
2023-03-25T02:49:51.687Z,994.18
2023-03-25T02:52:59.156Z,994.14
2023-03-25T02:56:07.302Z,994.10
2023-03-25T02:59:16.973Z,994.17
2023-03-25T03:02:24.394Z,994.14
2023-03-25T03:05:32.628Z,994.12
2023-03-25T03:08:42.094Z,994.14
2023-03-25T03:11:49.651Z,994.15
2023-03-25T03:14:57.677Z,994.12
2023-03-25T03:18:07.053Z,994.24
2023-03-25T03:21:14.842Z,994.19
2023-03-25T03:24:22.741Z,994.18
2023-03-25T03:27:30.344Z,994.19
2023-03-25T03:30:39.499Z,994.18
2023-03-25T03:33:46.880Z,994.22
2023-03-25T03:36:55.126Z,994.20
2023-03-25T03:40:04.442Z,994.22
2023-03-25T03:43:11.817Z,994.20
2023-03-25T03:46:20.095Z,994.29
2023-03-25T03:49:29.234Z,994.34
2023-03-25T03:52:36.895Z,994.32
2023-03-25T03:55:45.111Z,994.35
2023-03-25T03:58:54.341Z,994.36
2023-03-25T04:02:02.195Z,994.29
2023-03-25T04:05:10.152Z,994.30
2023-03-25T04:08:19.414Z,994.34
2023-03-25T04:11:27.401Z,994.29
2023-03-25T04:14:35.457Z,994.32
2023-03-25T04:17:43.397Z,994.26
2023-03-25T04:20:52.732Z,994.25
2023-03-25T04:24:00.455Z,994.32
2023-03-25T04:27:08.747Z,994.38
2023-03-25T04:30:18.088Z,994.44
2023-03-25T04:33:25.801Z,994.35
2023-03-25T04:36:34.074Z,994.37
2023-03-25T04:39:43.329Z,994.34
2023-03-25T04:42:51.254Z,994.38
2023-03-25T04:45:59.346Z,994.38
2023-03-25T04:49:08.021Z,994.30
2023-03-25T04:52:15.935Z,994.32
2023-03-25T04:55:24.112Z,994.32
2023-03-25T04:58:32.039Z,994.34
2023-03-25T05:01:41.226Z,994.27
2023-03-25T05:04:49.478Z,994.29
2023-03-25T05:07:57.097Z,994.24
2023-03-25T05:11:06.268Z,994.23
2023-03-25T05:14:14.246Z,994.24
2023-03-25T05:17:22.819Z,994.32
2023-03-25T05:20:31.988Z,994.25
2023-03-25T05:23:39.850Z,994.31
2023-03-25T05:26:48.136Z,994.37
2023-03-25T05:29:56.990Z,994.48
2023-03-25T05:33:05.464Z,994.42
2023-03-25T05:36:13.612Z,994.44
2023-03-25T05:39:22.510Z,994.65
2023-03-25T05:42:30.636Z,994.56
2023-03-25T05:45:39.008Z,994.57
2023-03-25T05:48:46.437Z,994.48
2023-03-25T05:51:56.654Z,994.40
2023-03-25T05:55:04.703Z,994.45
2023-03-25T05:58:12.525Z,994.53
2023-03-25T06:01:32.835Z,994.61
2023-03-25T06:04:27.061Z,994.55
2023-03-25T06:07:34.968Z,994.54
2023-03-25T06:10:44.392Z,994.54
2023-03-25T06:13:51.922Z,994.65
2023-03-25T06:16:59.769Z,994.55
2023-03-25T06:20:08.859Z,994.53
2023-03-25T06:23:16.986Z,994.58
2023-03-25T06:26:24.847Z,994.55
2023-03-25T06:29:32.485Z,994.54
2023-03-25T06:32:42.036Z,994.53
2023-03-25T06:35:49.474Z,994.57
2023-03-25T06:38:57.258Z,994.58
2023-03-25T06:42:06.769Z,994.66
2023-03-25T06:45:14.263Z,994.61
2023-03-25T06:48:17.402Z,994.66
2023-03-25T06:51:25.782Z,994.67
2023-03-25T06:54:33.226Z,994.67
2023-03-25T06:57:41.327Z,994.57
2023-03-25T07:00:51.120Z,994.67
2023-03-25T07:03:58.544Z,994.64
2023-03-25T07:07:06.808Z,994.70
2023-03-25T07:10:15.877Z,994.72
2023-03-25T07:13:23.344Z,994.68
2023-03-25T07:16:31.638Z,994.63
2023-03-25T07:19:40.688Z,994.70
2023-03-25T07:22:48.010Z,994.67
2023-03-25T07:25:49.273Z,994.72
2023-03-25T07:28:49.649Z,994.71
2023-03-25T07:31:57.238Z,994.73
2023-03-25T07:35:04.922Z,994.71
2023-03-25T07:38:12.603Z,994.72
2023-03-25T07:41:21.752Z,994.65
2023-03-25T07:44:29.527Z,994.67
2023-03-25T07:47:37.913Z,994.73
2023-03-25T07:50:47.023Z,994.72
2023-03-25T07:53:54.552Z,994.67
2023-03-25T07:57:02.838Z,994.64
2023-03-25T08:00:12.377Z,994.70
2023-03-25T08:03:20.308Z,994.74
2023-03-25T08:06:28.665Z,994.78
2023-03-25T08:09:37.583Z,994.78
2023-03-25T08:12:45.632Z,994.73
2023-03-25T08:15:54.012Z,994.70
2023-03-25T08:19:01.529Z,994.77
2023-03-25T08:22:11.443Z,994.71
2023-03-25T08:25:19.263Z,994.77
2023-03-25T08:28:27.050Z,994.68
2023-03-25T08:31:36.318Z,994.72
2023-03-25T08:34:44.134Z,994.76
2023-03-25T08:37:52.049Z,994.77
2023-03-25T08:41:01.672Z,994.77
2023-03-25T08:44:09.425Z,994.80
2023-03-25T08:47:17.329Z,994.79
2023-03-25T08:50:26.854Z,994.77
2023-03-25T08:53:34.283Z,994.72
2023-03-25T08:56:41.999Z,994.74
2023-03-25T08:59:49.455Z,994.76
2023-03-25T09:02:58.998Z,994.75
2023-03-25T09:06:06.684Z,994.70
2023-03-25T09:09:14.631Z,994.74
2023-03-25T09:12:24.123Z,994.79
2023-03-25T09:15:31.646Z,994.74
2023-03-25T09:18:39.381Z,994.80
2023-03-25T09:21:49.156Z,994.77
2023-03-25T09:24:56.437Z,994.83
2023-03-25T09:28:04.463Z,994.73
2023-03-25T09:31:14.002Z,994.70
2023-03-25T09:34:21.397Z,994.68
2023-03-25T09:37:29.551Z,994.86
2023-03-25T09:40:37.456Z,994.74
2023-03-25T09:43:46.585Z,994.89
2023-03-25T09:46:54.865Z,994.95
2023-03-25T09:50:02.438Z,994.93
2023-03-25T09:53:11.531Z,994.99
2023-03-25T09:56:19.687Z,994.94
2023-03-25T09:59:27.067Z,995.04
2023-03-25T10:02:37.243Z,994.98
2023-03-25T10:05:47.639Z,994.89
2023-03-25T10:08:55.353Z,994.93
2023-03-25T10:12:04.344Z,994.90
2023-03-25T10:15:11.993Z,994.96
2023-03-25T10:18:19.779Z,994.95
2023-03-25T10:21:29.077Z,995.01
2023-03-25T10:24:37.024Z,994.90
2023-03-25T10:27:44.677Z,994.85
2023-03-25T10:30:52.943Z,994.83
2023-03-25T10:34:02.275Z,994.75
2023-03-25T10:37:12.916Z,994.71
2023-03-25T10:40:21.787Z,994.58
2023-03-25T10:43:20.674Z,994.64
2023-03-25T10:46:28.397Z,994.60
2023-03-25T10:49:35.911Z,994.49
2023-03-25T10:52:45.368Z,994.46
2023-03-25T10:55:53.765Z,994.36
2023-03-25T10:59:01.150Z,994.27
2023-03-25T11:02:10.777Z,994.32
2023-03-25T11:05:18.962Z,994.33
2023-03-25T11:08:26.698Z,994.33
2023-03-25T11:11:34.468Z,994.50
2023-03-25T11:14:43.651Z,994.34
2023-03-25T11:17:51.362Z,994.38
2023-03-25T11:20:58.825Z,994.49
2023-03-25T11:24:08.023Z,994.61
2023-03-25T11:27:15.764Z,994.50
2023-03-25T11:30:23.162Z,994.44
2023-03-25T11:33:32.786Z,994.38
2023-03-25T11:36:40.166Z,994.46
2023-03-25T11:39:47.939Z,994.34
2023-03-25T11:42:57.381Z,994.34
2023-03-25T11:46:05.074Z,994.37
2023-03-25T11:49:12.755Z,994.29
2023-03-25T11:52:20.192Z,994.21
2023-03-25T11:55:29.454Z,994.13
2023-03-25T11:58:37.153Z,994.22
2023-03-25T12:01:44.902Z,994.21
2023-03-25T12:04:54.018Z,994.09
2023-03-25T12:08:01.836Z,994.14
2023-03-25T12:11:09.641Z,994.22
2023-03-25T12:14:18.677Z,994.14
2023-03-25T12:17:26.498Z,994.14
2023-03-25T12:20:33.598Z,993.97
2023-03-25T12:23:42.587Z,994.03
2023-03-25T12:26:50.130Z,994.09
2023-03-25T12:29:58.238Z,993.97
2023-03-25T12:33:05.877Z,994.04
2023-03-25T12:36:14.895Z,994.07
2023-03-25T12:39:32.270Z,994.03
2023-03-25T12:42:28.047Z,993.98
2023-03-25T12:45:37.948Z,993.94
2023-03-25T12:48:45.632Z,993.90
2023-03-25T12:51:53.215Z,993.83
2023-03-25T12:55:02.498Z,993.76
2023-03-25T12:58:10.125Z,993.68
2023-03-25T13:01:18.029Z,993.62
2023-03-25T13:04:27.746Z,993.71
2023-03-25T13:07:35.383Z,993.66
2023-03-25T13:10:42.787Z,993.72
2023-03-25T13:13:51.972Z,993.79
2023-03-25T13:16:59.613Z,993.82
2023-03-25T13:20:07.261Z,993.88
2023-03-25T13:23:14.920Z,993.83
2023-03-25T13:26:24.359Z,993.92
2023-03-25T13:29:32.116Z,993.94
2023-03-25T13:32:39.596Z,993.89
2023-03-25T13:35:49.053Z,993.87
2023-03-25T13:38:56.344Z,993.89
2023-03-25T13:42:04.256Z,993.83
2023-03-25T13:45:13.701Z,993.73
2023-03-25T13:48:21.068Z,993.79
2023-03-25T13:51:29.271Z,993.78
2023-03-25T13:54:38.514Z,993.91
2023-03-25T13:57:45.827Z,993.78
2023-03-25T14:00:54.079Z,993.90
2023-03-25T14:04:01.706Z,993.78
2023-03-25T14:07:11.024Z,993.87
2023-03-25T14:10:18.346Z,993.89
2023-03-25T14:13:26.197Z,993.81
2023-03-25T14:16:35.336Z,993.90
2023-03-25T14:19:43.103Z,993.86
2023-03-25T14:22:51.107Z,993.80
2023-03-25T14:26:00.412Z,993.82
2023-03-25T14:29:07.907Z,993.85
2023-03-25T14:32:16.057Z,993.84
2023-03-25T14:35:24.908Z,993.80
2023-03-25T14:38:32.460Z,993.92
2023-03-25T14:41:40.604Z,994.06
2023-03-25T14:44:48.247Z,994.02
2023-03-25T14:47:57.610Z,994.07
2023-03-25T14:51:06.091Z,994.23
2023-03-25T14:54:13.868Z,994.20
2023-03-25T14:57:23.004Z,994.23
2023-03-25T15:00:30.608Z,994.11
2023-03-25T15:03:38.470Z,994.09
2023-03-25T15:06:47.335Z,994.08
2023-03-25T15:09:55.069Z,994.12
2023-03-25T15:13:03.355Z,994.07
2023-03-25T15:16:12.174Z,993.99
2023-03-25T15:19:20.458Z,994.05
2023-03-25T15:22:28.794Z,994.15
2023-03-25T15:25:37.576Z,994.20
2023-03-25T15:28:46.067Z,994.26
2023-03-25T15:31:56.199Z,994.34
2023-03-25T15:35:03.899Z,994.31
2023-03-25T15:38:13.154Z,994.26
2023-03-25T15:41:20.435Z,994.33
2023-03-25T15:44:28.249Z,994.27
2023-03-25T15:47:37.073Z,994.21
2023-03-25T15:50:44.569Z,994.18
2023-03-25T15:53:52.161Z,994.16
2023-03-25T15:57:01.761Z,994.11
2023-03-25T16:00:09.643Z,994.12
2023-03-25T16:03:17.764Z,994.06
2023-03-25T16:06:26.815Z,994.06
2023-03-25T16:09:34.894Z,994.06
2023-03-25T16:12:42.226Z,994.07
2023-03-25T16:15:49.944Z,993.98
2023-03-25T16:18:59.146Z,993.94
2023-03-25T16:22:06.481Z,993.96
2023-03-25T16:25:13.984Z,993.86
2023-03-25T16:28:23.564Z,993.86
2023-03-25T16:31:32.545Z,994.36
2023-03-25T16:34:41.675Z,994.46
2023-03-25T16:37:50.672Z,994.51
2023-03-25T16:40:58.668Z,994.59
2023-03-25T16:44:06.439Z,994.64
2023-03-25T16:47:15.769Z,994.80
2023-03-25T16:50:23.658Z,994.88
2023-03-25T16:53:31.409Z,994.85
2023-03-25T16:56:39.176Z,994.54
2023-03-25T16:59:47.852Z,994.60
2023-03-25T17:02:55.330Z,994.49
2023-03-25T17:06:03.441Z,994.42
2023-03-25T17:09:12.780Z,994.49
2023-03-25T17:12:20.175Z,994.42
2023-03-25T17:15:28.478Z,994.44
2023-03-25T17:18:37.938Z,994.42
2023-03-25T17:21:45.191Z,994.48
2023-03-25T17:24:52.732Z,994.41
2023-03-25T17:28:01.753Z,994.27
2023-03-25T17:31:09.330Z,994.30
2023-03-25T17:34:17.319Z,994.39
2023-03-25T17:37:26.461Z,994.53
2023-03-25T17:40:34.927Z,994.46
2023-03-25T17:43:43.840Z,994.58
2023-03-25T17:46:51.630Z,994.46
2023-03-25T17:50:01.674Z,994.59
2023-03-25T17:53:09.351Z,994.59
2023-03-25T17:56:18.477Z,994.59
2023-03-25T17:59:27.891Z,994.64
2023-03-25T18:02:35.812Z,994.78
2023-03-25T18:05:43.913Z,994.83
2023-03-25T18:08:49.899Z,994.87
2023-03-25T18:11:58.215Z,994.79
2023-03-25T18:15:06.320Z,994.72
2023-03-25T18:18:15.130Z,994.83
2023-03-25T18:21:23.544Z,994.72
2023-03-25T18:24:31.801Z,994.69
2023-03-25T18:27:43.857Z,994.79
2023-03-25T18:30:43.264Z,994.75
2023-03-25T18:33:51.343Z,994.66
2023-03-25T18:36:59.044Z,994.71
2023-03-25T18:40:09.008Z,994.71
2023-03-25T18:43:17.328Z,994.73
2023-03-25T18:46:25.148Z,994.67
2023-03-25T18:49:35.057Z,994.77
2023-03-25T18:52:43.626Z,994.79
2023-03-25T18:55:52.048Z,994.86
2023-03-25T18:59:01.226Z,994.98
2023-03-25T19:02:09.710Z,995.05
2023-03-25T19:05:17.202Z,995.08
2023-03-25T19:08:25.127Z,995.05
2023-03-25T19:11:34.599Z,995.23
2023-03-25T19:14:42.145Z,995.15
2023-03-25T19:17:50.382Z,995.16
2023-03-25T19:20:59.928Z,995.08
2023-03-25T19:24:07.390Z,995.11
2023-03-25T19:27:15.738Z,995.18
2023-03-25T19:30:24.912Z,995.16
2023-03-25T19:33:32.294Z,995.18
2023-03-25T19:36:40.695Z,995.18
2023-03-25T19:39:49.986Z,995.23
2023-03-25T19:42:57.834Z,995.18
2023-03-25T19:46:05.756Z,995.21
2023-03-25T19:49:20.670Z,995.24
2023-03-25T19:52:21.374Z,995.24
2023-03-25T19:55:29.148Z,995.32
2023-03-25T19:58:37.425Z,995.30
2023-03-25T20:01:46.847Z,995.39
2023-03-25T20:04:54.591Z,995.30
2023-03-25T20:08:02.622Z,995.31
2023-03-25T20:11:11.888Z,995.33
2023-03-25T20:14:19.569Z,995.36
2023-03-25T20:17:27.371Z,995.42
2023-03-25T20:20:36.242Z,995.39
2023-03-25T20:23:44.203Z,995.35
2023-03-25T20:26:51.724Z,995.47
2023-03-25T20:30:01.327Z,995.42
2023-03-25T20:33:09.267Z,995.52
2023-03-25T20:36:17.048Z,995.42
2023-03-25T20:39:24.895Z,995.51
2023-03-25T20:42:34.108Z,995.46
2023-03-25T20:45:42.526Z,995.42
2023-03-25T20:48:50.458Z,995.49
2023-03-25T20:51:59.653Z,995.46
2023-03-25T20:55:07.557Z,995.48
2023-03-25T20:58:15.388Z,995.48
2023-03-25T21:01:24.726Z,995.55
2023-03-25T21:04:33.069Z,995.44
2023-03-25T21:07:40.542Z,995.57
2023-03-25T21:10:50.160Z,995.60
2023-03-25T21:13:58.533Z,995.50
2023-03-25T21:17:05.860Z,995.51
2023-03-25T21:20:14.141Z,995.52
2023-03-25T21:23:23.926Z,995.52
2023-03-25T21:26:31.388Z,995.53
2023-03-25T21:29:39.454Z,995.53
2023-03-25T21:32:48.764Z,995.60
2023-03-25T21:35:56.909Z,995.54
2023-03-25T21:39:04.785Z,995.62
2023-03-25T21:42:13.970Z,995.65
2023-03-25T21:45:21.734Z,995.73
2023-03-25T21:48:30.013Z,995.65
2023-03-25T21:51:39.168Z,995.62
2023-03-25T21:54:46.934Z,995.58
2023-03-25T21:57:55.100Z,995.80
2023-03-25T22:01:04.263Z,995.74
2023-03-25T22:04:12.216Z,995.77
2023-03-25T22:07:19.852Z,995.83
2023-03-25T22:10:27.983Z,995.80
2023-03-25T22:13:37.272Z,995.88
2023-03-25T22:16:45.120Z,995.79
2023-03-25T22:19:53.453Z,995.90
2023-03-25T22:23:02.823Z,995.87
2023-03-25T22:26:10.424Z,995.96
2023-03-25T22:29:18.569Z,996.01
2023-03-25T22:32:27.878Z,995.99
2023-03-25T22:35:35.773Z,996.07
2023-03-25T22:38:43.936Z,996.01
2023-03-25T22:41:53.125Z,996.00
2023-03-25T22:45:00.932Z,995.99
2023-03-25T22:48:09.038Z,995.99
2023-03-25T22:51:16.723Z,996.05
2023-03-25T22:54:25.859Z,996.07
2023-03-25T22:57:34.035Z,996.15
2023-03-25T23:00:41.750Z,996.14
2023-03-25T23:03:51.030Z,996.18
2023-03-25T23:07:08.002Z,996.22
2023-03-25T23:10:04.383Z,996.17
2023-03-25T23:13:13.527Z,996.26
2023-03-25T23:16:21.382Z,996.35
2023-03-25T23:19:29.160Z,996.29
2023-03-25T23:22:38.482Z,996.29
2023-03-25T23:25:45.972Z,996.48
2023-03-25T23:28:54.157Z,996.39
2023-03-25T23:32:03.283Z,996.34
2023-03-25T23:35:11.272Z,996.38
2023-03-25T23:38:19.591Z,996.43
2023-03-25T23:41:27.395Z,996.38
2023-03-25T23:44:36.640Z,996.49
2023-03-25T23:47:44.795Z,996.48
2023-03-25T23:50:52.665Z,996.50
2023-03-25T23:54:01.745Z,996.51
2023-03-25T23:57:09.920Z,996.61
